createdAt,value
2023-01-18T00:14:21.910Z,86.69
2023-01-18T00:29:25.133Z,86.67
2023-01-18T00:44:28.309Z,86.73
2023-01-18T00:59:31.790Z,86.89
2023-01-18T01:14:57.504Z,87.69
2023-01-18T01:30:00.679Z,87.06
2023-01-18T01:45:04.514Z,87.28
2023-01-18T02:00:19.884Z,87.25
2023-01-18T02:15:29.535Z,88.00
2023-01-18T02:30:43.328Z,88.50
2023-01-18T02:46:08.144Z,87.85
2023-01-18T03:01:18.066Z,88.58
2023-01-18T03:16:31.279Z,89.22
2023-01-18T03:32:00.092Z,89.09
2023-01-18T03:47:06.296Z,89.38
2023-01-18T04:02:10.258Z,89.02
2023-01-18T04:17:14.019Z,89.18
2023-01-18T04:32:17.510Z,89.97
2023-01-18T04:47:20.703Z,90.06
2023-01-18T05:02:24.131Z,90.18
2023-01-18T05:17:27.716Z,90.84
2023-01-18T05:32:30.860Z,91.75
2023-01-18T05:47:34.112Z,91.67
2023-01-18T06:02:37.319Z,91.68
2023-01-18T06:17:40.502Z,91.32
2023-01-18T06:32:43.925Z,91.41
2023-01-18T06:47:47.121Z,91.18
2023-01-18T07:02:52.331Z,91.13
2023-01-18T07:17:55.565Z,91.21
2023-01-18T07:32:59.519Z,91.44
2023-01-18T07:48:03.058Z,91.76
2023-01-18T08:03:06.530Z,92.19
2023-01-18T08:18:09.976Z,92.81
2023-01-18T08:33:13.478Z,93.26
2023-01-18T08:48:16.758Z,94.26
2023-01-18T09:03:22.127Z,94.13
2023-01-18T09:18:25.509Z,95.16
2023-01-18T09:33:37.519Z,95.26
2023-01-18T09:48:42.577Z,95.31
2023-01-18T10:03:51.965Z,95.35
2023-01-18T10:18:57.496Z,94.53
2023-01-18T10:34:02.976Z,93.72
2023-01-18T10:49:08.708Z,93.36
2023-01-18T11:04:22.884Z,92.45
2023-01-18T11:19:26.365Z,92.61
2023-01-18T11:34:41.597Z,92.09
2023-01-18T11:50:33.998Z,92.78
2023-01-18T12:05:53.337Z,93.47
2023-01-18T12:21:12.288Z,93.43
2023-01-18T12:36:30.231Z,93.12
2023-01-18T12:51:37.730Z,93.36
2023-01-18T13:06:42.949Z,93.30
2023-01-18T13:22:08.145Z,93.44
2023-01-18T13:37:46.133Z,93.64
2023-01-18T13:53:14.973Z,94.17
2023-01-18T14:08:24.891Z,94.67
2023-01-18T14:23:51.904Z,94.76
2023-01-18T14:39:30.252Z,94.80
2023-01-18T14:54:33.539Z,95.36
2023-01-18T15:09:39.899Z,95.88
2023-01-18T15:24:45.354Z,95.94
2023-01-18T15:39:51.336Z,96.44
2023-01-18T15:54:54.688Z,96.78
2023-01-18T16:10:20.319Z,97.08
2023-01-18T16:25:24.360Z,97.76
2023-01-18T16:40:28.936Z,97.38
2023-01-18T16:55:32.469Z,97.74
2023-01-18T17:10:38.448Z,97.92
2023-01-18T17:25:41.825Z,98.49
2023-01-18T17:40:45.138Z,98.17
2023-01-18T17:55:48.393Z,98.69
2023-01-18T18:10:51.874Z,98.58
2023-01-18T18:25:56.233Z,98.72
2023-01-18T18:41:05.333Z,99.02
2023-01-18T18:56:11.120Z,98.95
2023-01-18T19:11:18.027Z,99.57
2023-01-18T19:26:25.835Z,99.83
2023-01-18T19:41:32.259Z,99.96
2023-01-18T19:56:35.617Z,100.00
2023-01-18T20:11:38.838Z,99.82
2023-01-18T20:26:42.610Z,99.92
2023-01-18T20:41:46.754Z,100.00
2023-01-18T20:56:50.106Z,100.00
2023-01-18T21:11:54.433Z,100.00
2023-01-18T21:26:57.785Z,100.00
2023-01-18T21:42:19.809Z,100.00
2023-01-18T21:57:25.561Z,100.00
2023-01-18T22:12:28.738Z,100.00
2023-01-18T22:27:32.426Z,100.00
2023-01-18T22:42:35.667Z,100.00
2023-01-18T22:57:39.053Z,100.00
2023-01-18T23:12:42.193Z,100.00
2023-01-18T23:27:45.375Z,100.00
2023-01-18T23:43:07.082Z,100.00
2023-01-18T23:58:10.230Z,100.00
